createdAt,value
2023-01-27T00:00:50.785Z,2.10
2023-01-27T00:03:18.871Z,3.00
2023-01-27T00:05:48.475Z,1.90
2023-01-27T00:08:16.643Z,1.63
2023-01-27T00:10:44.279Z,2.20
2023-01-27T00:13:27.496Z,1.60
2023-01-27T00:15:55.897Z,2.30
2023-01-27T00:18:24.514Z,1.70
2023-01-27T00:21:11.146Z,1.90
2023-01-27T00:23:56.316Z,2.17
2023-01-27T00:26:24.113Z,1.80
2023-01-27T00:28:51.976Z,2.13
2023-01-27T00:31:37.568Z,2.50
2023-01-27T00:34:10.062Z,2.40
2023-01-27T00:36:40.845Z,2.43
2023-01-27T00:39:10.654Z,2.00
2023-01-27T00:41:38.738Z,2.43
2023-01-27T00:44:07.293Z,2.87
2023-01-27T00:46:35.037Z,2.20
2023-01-27T00:49:02.619Z,3.57
2023-01-27T00:51:31.161Z,2.97
2023-01-27T00:54:02.859Z,2.80
2023-01-27T00:56:30.400Z,3.93
2023-01-27T00:58:58.022Z,3.23
2023-01-27T01:01:25.592Z,3.17
2023-01-27T01:03:53.257Z,3.23
2023-01-27T01:06:22.003Z,3.17
2023-01-27T01:08:51.170Z,2.83
2023-01-27T01:11:24.056Z,3.03
2023-01-27T01:13:51.586Z,2.70
2023-01-27T01:16:22.804Z,2.87
2023-01-27T01:18:50.452Z,3.30
2023-01-27T01:21:18.124Z,2.70
2023-01-27T01:23:47.078Z,2.43
2023-01-27T01:26:16.777Z,1.93
2023-01-27T01:28:46.662Z,1.60
2023-01-27T01:31:16.379Z,2.10
2023-01-27T01:33:43.916Z,2.17
2023-01-27T01:36:13.230Z,2.70
2023-01-27T01:38:41.018Z,2.10
2023-01-27T01:41:13.367Z,2.27
2023-01-27T01:43:41.018Z,2.77
2023-01-27T01:46:11.670Z,2.23
2023-01-27T01:48:43.352Z,2.43
2023-01-27T01:51:14.087Z,2.87
2023-01-27T01:53:45.190Z,2.50
2023-01-27T01:56:16.045Z,3.27
2023-01-27T01:58:47.552Z,2.27
2023-01-27T02:01:19.051Z,1.93
2023-01-27T02:03:50.946Z,2.37
2023-01-27T02:06:18.876Z,2.30
2023-01-27T02:08:48.697Z,2.43
2023-01-27T02:11:16.899Z,2.07
2023-01-27T02:13:45.217Z,3.07
2023-01-27T02:16:13.381Z,2.50
2023-01-27T02:18:42.645Z,2.67
2023-01-27T02:21:10.643Z,2.80
2023-01-27T02:23:53.556Z,2.30
2023-01-27T02:26:26.619Z,2.30
2023-01-27T02:28:57.096Z,2.37
2023-01-27T02:31:25.387Z,2.60
2023-01-27T02:33:56.117Z,2.90
2023-01-27T02:36:24.554Z,3.63
2023-01-27T02:38:54.546Z,2.83
2023-01-27T02:41:28.781Z,2.90
2023-01-27T02:43:56.790Z,3.47
2023-01-27T02:46:24.379Z,3.20
2023-01-27T02:48:52.225Z,4.50
2023-01-27T02:51:20.057Z,3.00
2023-01-27T02:53:48.449Z,2.90
2023-01-27T02:56:16.156Z,3.13
2023-01-27T02:58:45.824Z,3.10
2023-01-27T03:01:19.648Z,2.50
2023-01-27T03:03:47.871Z,2.50
2023-01-27T03:06:20.335Z,2.83
2023-01-27T03:08:48.684Z,3.53
2023-01-27T03:11:37.606Z,2.63
2023-01-27T03:14:06.852Z,2.50
2023-01-27T03:16:51.949Z,2.80
2023-01-27T03:19:19.680Z,3.07
2023-01-27T03:21:50.947Z,2.87
2023-01-27T03:24:18.675Z,2.37
2023-01-27T03:26:47.189Z,2.80
2023-01-27T03:29:35.981Z,2.30
2023-01-27T03:32:04.775Z,2.77
2023-01-27T03:34:33.228Z,2.83
2023-01-27T03:37:29.779Z,3.07
2023-01-27T03:40:15.193Z,2.93
2023-01-27T03:43:00.463Z,2.30
2023-01-27T03:45:47.050Z,2.27
2023-01-27T03:48:14.916Z,2.03
2023-01-27T03:50:43.722Z,2.20
2023-01-27T03:53:11.765Z,2.03
2023-01-27T03:55:40.135Z,2.10
2023-01-27T03:58:19.633Z,2.80
2023-01-27T04:00:51.753Z,2.00
2023-01-27T04:03:37.353Z,1.90
2023-01-27T04:06:23.511Z,2.67
2023-01-27T04:08:51.082Z,2.13
2023-01-27T04:11:36.864Z,2.07
2023-01-27T04:14:05.550Z,2.00
2023-01-27T04:16:36.665Z,2.17
2023-01-27T04:19:05.475Z,2.33
2023-01-27T04:21:33.059Z,2.10
2023-01-27T04:24:01.390Z,2.43
2023-01-27T04:26:33.226Z,2.10
2023-01-27T04:29:01.457Z,2.03
2023-01-27T04:31:29.095Z,2.10
2023-01-27T04:33:58.070Z,2.00
2023-01-27T04:36:25.748Z,1.80
2023-01-27T04:38:53.752Z,2.00
2023-01-27T04:41:32.212Z,1.60
2023-01-27T04:43:59.865Z,1.63
2023-01-27T04:46:27.382Z,1.70
2023-01-27T04:48:54.879Z,1.50
2023-01-27T04:51:23.941Z,2.00
2023-01-27T04:53:51.574Z,1.63
2023-01-27T04:56:25.533Z,2.17
2023-01-27T04:58:53.540Z,1.67
2023-01-27T05:01:21.666Z,1.60
2023-01-27T05:03:49.316Z,1.87
2023-01-27T05:06:17.216Z,1.40
2023-01-27T05:08:46.137Z,1.50
2023-01-27T05:11:13.899Z,1.40
2023-01-27T05:13:41.795Z,1.30
2023-01-27T05:16:12.337Z,1.50
2023-01-27T05:18:41.522Z,1.57
2023-01-27T05:21:12.625Z,1.73
2023-01-27T05:23:40.660Z,1.43
2023-01-27T05:26:14.043Z,1.50
2023-01-27T05:28:44.293Z,2.23
2023-01-27T05:31:14.048Z,1.80
2023-01-27T05:33:43.541Z,1.60
2023-01-27T05:36:13.991Z,1.80
2023-01-27T05:38:42.099Z,1.40
2023-01-27T05:41:12.637Z,1.53
2023-01-27T05:43:42.491Z,1.63
2023-01-27T05:46:12.323Z,1.30
2023-01-27T05:48:42.132Z,1.33
2023-01-27T05:51:12.328Z,1.27
2023-01-27T05:53:41.726Z,1.27
2023-01-27T05:56:13.059Z,1.40
2023-01-27T05:58:40.951Z,1.77
2023-01-27T06:01:10.435Z,1.40
2023-01-27T06:03:39.473Z,1.47
2023-01-27T06:06:09.536Z,1.80
2023-01-27T06:08:37.975Z,1.20
2023-01-27T06:11:06.479Z,1.53
2023-01-27T06:13:36.012Z,1.40
2023-01-27T06:16:04.648Z,1.50
2023-01-27T06:18:32.502Z,1.33
2023-01-27T06:21:00.720Z,1.10
2023-01-27T06:23:28.669Z,1.27
2023-01-27T06:25:57.284Z,1.40
2023-01-27T06:28:30.002Z,1.40
2023-01-27T06:31:06.197Z,1.60
2023-01-27T06:33:34.869Z,1.37
2023-01-27T06:36:04.153Z,1.47
2023-01-27T06:38:32.199Z,1.53
2023-01-27T06:41:00.512Z,1.63
2023-01-27T06:43:28.368Z,1.83
2023-01-27T06:45:57.515Z,1.60
2023-01-27T06:48:26.855Z,1.50
2023-01-27T06:50:55.364Z,2.03
2023-01-27T06:53:23.640Z,1.60
2023-01-27T06:55:56.317Z,2.03
2023-01-27T06:58:24.080Z,1.70
2023-01-27T07:00:52.175Z,1.47
2023-01-27T07:03:21.308Z,1.50
2023-01-27T07:05:50.295Z,1.63
2023-01-27T07:08:18.005Z,1.53
2023-01-27T07:10:45.573Z,1.67
2023-01-27T07:13:15.094Z,1.10
2023-01-27T07:15:43.241Z,1.70
2023-01-27T07:18:11.907Z,1.30
2023-01-27T07:20:39.507Z,1.63
2023-01-27T07:23:08.486Z,1.40
2023-01-27T07:25:36.238Z,1.40
2023-01-27T07:28:04.686Z,1.20
2023-01-27T07:30:33.946Z,1.40
2023-01-27T07:33:04.674Z,1.73
2023-01-27T07:35:32.313Z,1.70
2023-01-27T07:38:00.285Z,1.70
2023-01-27T07:40:29.324Z,2.03
2023-01-27T07:42:59.209Z,2.07
2023-01-27T07:45:28.825Z,2.00
2023-01-27T07:48:01.402Z,2.43
2023-01-27T07:50:29.194Z,1.90
2023-01-27T07:53:00.092Z,1.37
2023-01-27T07:55:29.688Z,1.60
2023-01-27T07:57:57.463Z,1.30
2023-01-27T08:00:25.894Z,1.83
2023-01-27T08:02:54.070Z,1.70
2023-01-27T08:05:22.951Z,1.70
2023-01-27T08:07:51.406Z,1.50
2023-01-27T08:10:19.723Z,1.30
2023-01-27T08:12:49.163Z,1.20
2023-01-27T08:15:19.007Z,1.57
2023-01-27T08:17:54.473Z,1.40
2023-01-27T08:20:22.084Z,1.30
2023-01-27T08:22:49.608Z,1.40
2023-01-27T08:25:17.221Z,1.50
2023-01-27T08:27:44.755Z,1.80
2023-01-27T08:30:14.569Z,1.37
2023-01-27T08:32:42.350Z,1.87
2023-01-27T08:35:10.256Z,1.83
2023-01-27T08:37:37.776Z,1.60
2023-01-27T08:40:06.177Z,1.63
2023-01-27T08:42:33.907Z,1.83
2023-01-27T08:45:01.441Z,2.53
2023-01-27T08:47:30.431Z,2.30
2023-01-27T08:49:58.253Z,1.77
2023-01-27T08:52:27.622Z,2.63
2023-01-27T08:54:55.163Z,2.23
2023-01-27T08:57:22.830Z,1.90
2023-01-27T08:59:50.353Z,2.33
2023-01-27T09:02:17.947Z,3.43
2023-01-27T09:04:46.880Z,2.20
2023-01-27T09:07:14.446Z,1.93
2023-01-27T09:09:42.050Z,2.80
2023-01-27T09:12:09.740Z,2.40
2023-01-27T09:14:37.272Z,2.27
2023-01-27T09:17:04.794Z,1.90
2023-01-27T09:19:32.388Z,2.33
2023-01-27T09:22:01.241Z,1.83
2023-01-27T09:24:29.030Z,1.80
2023-01-27T09:26:56.653Z,1.97
2023-01-27T09:29:24.131Z,1.97
2023-01-27T09:31:51.797Z,2.53
2023-01-27T09:34:19.548Z,1.40
2023-01-27T09:36:53.039Z,1.77
2023-01-27T09:39:23.020Z,1.90
2023-01-27T09:42:04.232Z,1.60
2023-01-27T09:44:52.097Z,1.60
2023-01-27T09:47:30.498Z,1.67
2023-01-27T09:50:31.691Z,1.43
2023-01-27T09:53:25.023Z,1.83
2023-01-27T09:55:59.464Z,1.10
2023-01-27T09:58:41.710Z,1.60
2023-01-27T10:01:19.219Z,1.43
2023-01-27T10:04:08.710Z,1.50
2023-01-27T10:06:54.824Z,1.10
2023-01-27T10:09:41.493Z,1.83
2023-01-27T10:12:26.642Z,1.73
2023-01-27T10:15:04.110Z,1.50
2023-01-27T10:17:41.455Z,1.53
2023-01-27T10:20:24.137Z,1.50
2023-01-27T10:23:01.544Z,1.27
2023-01-27T10:25:38.271Z,1.03
2023-01-27T10:28:13.269Z,1.47
2023-01-27T10:30:47.377Z,1.53
2023-01-27T10:33:18.951Z,1.63
2023-01-27T10:35:52.561Z,4.80
2023-01-27T10:38:33.229Z,2.83
2023-01-27T10:41:12.842Z,2.70
2023-01-27T10:43:52.723Z,1.47
2023-01-27T10:46:30.738Z,2.67
2023-01-27T10:49:04.841Z,2.10
2023-01-27T10:51:38.618Z,2.50
2023-01-27T10:54:11.832Z,2.37
2023-01-27T10:56:43.899Z,1.37
2023-01-27T10:59:21.292Z,1.40
2023-01-27T11:01:54.157Z,2.40
2023-01-27T11:04:34.043Z,1.47
2023-01-27T11:07:01.981Z,1.13
2023-01-27T11:09:32.424Z,1.60
2023-01-27T11:12:03.556Z,1.33
2023-01-27T11:14:39.120Z,1.10
2023-01-27T11:17:16.072Z,1.37
2023-01-27T11:19:51.383Z,2.67
2023-01-27T11:22:22.656Z,4.73
2023-01-27T11:24:58.858Z,1.77
2023-01-27T11:27:38.860Z,2.67
2023-01-27T11:30:17.678Z,1.57
2023-01-27T11:32:53.586Z,2.20
2023-01-27T11:35:22.197Z,3.17
2023-01-27T11:37:51.489Z,1.93
2023-01-27T11:40:22.726Z,2.80
2023-01-27T11:42:52.038Z,3.03
2023-01-27T11:45:22.190Z,2.40
2023-01-27T11:47:54.098Z,1.87
2023-01-27T11:50:24.736Z,1.33
2023-01-27T11:52:59.939Z,1.70
2023-01-27T11:55:34.885Z,2.70
2023-01-27T11:58:14.611Z,3.27
2023-01-27T12:00:46.362Z,2.27
2023-01-27T12:03:21.562Z,2.27
2023-01-27T12:05:55.487Z,2.83
2023-01-27T12:08:44.788Z,3.27
2023-01-27T12:11:22.617Z,2.13
2023-01-27T12:13:52.179Z,1.37
2023-01-27T12:16:21.850Z,2.53
2023-01-27T12:18:55.545Z,1.30
2023-01-27T12:21:35.522Z,1.70
2023-01-27T12:24:03.471Z,2.77
2023-01-27T12:26:36.500Z,2.40
2023-01-27T12:29:08.102Z,3.70
2023-01-27T12:31:47.627Z,3.40
2023-01-27T12:34:25.777Z,2.97
2023-01-27T12:36:54.595Z,3.50
2023-01-27T12:39:31.439Z,3.20
2023-01-27T12:41:59.481Z,4.53
2023-01-27T12:44:29.173Z,4.20
2023-01-27T12:47:01.646Z,4.93
2023-01-27T12:49:34.858Z,3.80
2023-01-27T12:52:04.902Z,5.47
2023-01-27T12:54:33.731Z,4.50
2023-01-27T12:57:06.758Z,4.27
2023-01-27T12:59:35.192Z,3.90
2023-01-27T13:02:19.388Z,3.00
2023-01-27T13:04:54.121Z,3.23
2023-01-27T13:07:25.832Z,4.40
2023-01-27T13:09:56.296Z,3.87
2023-01-27T13:12:27.762Z,3.57
2023-01-27T13:14:58.733Z,3.27
2023-01-27T13:17:37.465Z,3.97
2023-01-27T13:20:09.644Z,3.10
2023-01-27T13:22:42.973Z,3.63
2023-01-27T13:25:18.397Z,2.77
2023-01-27T13:27:48.423Z,3.27
2023-01-27T13:30:24.812Z,5.27
2023-01-27T13:32:58.507Z,3.30
2023-01-27T13:35:31.060Z,2.37
2023-01-27T13:38:05.592Z,2.20
2023-01-27T13:40:39.954Z,2.60
2023-01-27T13:43:14.064Z,2.53
2023-01-27T13:45:44.447Z,4.30
2023-01-27T13:48:19.694Z,2.37
2023-01-27T13:50:50.845Z,2.90
2023-01-27T13:53:20.496Z,2.70
2023-01-27T13:56:04.274Z,2.03
2023-01-27T13:58:46.005Z,2.43
2023-01-27T14:01:24.483Z,1.40
2023-01-27T14:04:12.548Z,1.40
2023-01-27T14:06:55.202Z,2.37
2023-01-27T14:09:45.475Z,2.03
2023-01-27T14:12:26.375Z,2.80
2023-01-27T14:15:06.079Z,2.57
2023-01-27T14:17:45.025Z,3.07
2023-01-27T14:20:26.939Z,1.73
2023-01-27T14:23:07.572Z,3.53
2023-01-27T14:25:43.363Z,2.23
2023-01-27T14:28:22.735Z,1.77
2023-01-27T14:30:56.786Z,2.17
2023-01-27T14:33:36.633Z,1.20
2023-01-27T14:36:14.753Z,2.33
2023-01-27T14:38:49.239Z,2.13
2023-01-27T14:41:25.033Z,2.43
2023-01-27T14:44:01.250Z,2.60
2023-01-27T14:46:47.865Z,2.70
2023-01-27T14:49:26.924Z,2.20
2023-01-27T14:52:03.290Z,3.53
2023-01-27T14:54:51.633Z,2.13
2023-01-27T14:57:28.520Z,1.83
2023-01-27T15:00:06.387Z,2.23
2023-01-27T15:02:44.883Z,2.60
2023-01-27T15:05:19.789Z,1.37
2023-01-27T15:07:57.663Z,3.30
2023-01-27T15:10:26.943Z,2.33
2023-01-27T15:13:23.009Z,2.10
2023-01-27T15:15:59.371Z,2.13
2023-01-27T15:18:41.602Z,2.80
2023-01-27T15:21:31.874Z,1.97
2023-01-27T15:24:19.167Z,1.27
2023-01-27T15:26:48.774Z,2.30
2023-01-27T15:29:19.093Z,2.30
2023-01-27T15:32:12.832Z,2.43
2023-01-27T15:34:40.443Z,1.90
2023-01-27T15:37:19.015Z,1.80
2023-01-27T15:40:16.394Z,2.83
2023-01-27T15:42:52.457Z,1.30
2023-01-27T15:45:29.215Z,1.30
2023-01-27T15:48:02.204Z,1.47
2023-01-27T15:50:37.580Z,1.80
2023-01-27T15:53:12.692Z,2.60
2023-01-27T15:55:50.151Z,1.23
2023-01-27T15:58:33.220Z,1.27
2023-01-27T16:01:02.826Z,2.27
2023-01-27T16:03:33.145Z,1.77
2023-01-27T16:06:08.908Z,2.13
2023-01-27T16:08:42.813Z,0.93
2023-01-27T16:11:39.153Z,2.03
2023-01-27T16:14:40.071Z,1.57
2023-01-27T16:17:19.792Z,0.80
2023-01-27T16:19:55.912Z,1.00
2023-01-27T16:22:24.089Z,1.27
2023-01-27T16:24:56.783Z,1.80
2023-01-27T16:27:37.084Z,1.17
2023-01-27T16:30:14.654Z,1.93
2023-01-27T16:32:51.400Z,1.57
2023-01-27T16:35:22.250Z,1.63
2023-01-27T16:38:02.677Z,1.63
2023-01-27T16:40:32.217Z,1.73
2023-01-27T16:43:06.035Z,1.70
2023-01-27T16:45:43.032Z,4.57
2023-01-27T16:48:21.988Z,1.73
2023-01-27T16:50:50.545Z,2.07
2023-01-27T16:53:21.076Z,2.60
2023-01-27T16:55:59.762Z,2.57
2023-01-27T16:58:43.892Z,1.80
2023-01-27T17:01:21.130Z,1.90
2023-01-27T17:03:49.492Z,2.57
2023-01-27T17:06:18.351Z,2.50
2023-01-27T17:08:46.871Z,2.57
2023-01-27T17:11:23.551Z,3.03
2023-01-27T17:13:58.480Z,2.70
2023-01-27T17:16:28.777Z,4.07
2023-01-27T17:19:02.490Z,2.40
2023-01-27T17:21:34.033Z,3.67
2023-01-27T17:24:12.000Z,3.47
2023-01-27T17:26:43.521Z,2.60
2023-01-27T17:29:17.316Z,1.97
2023-01-27T17:31:45.181Z,2.37
2023-01-27T17:34:18.810Z,2.73
2023-01-27T17:37:06.906Z,1.83
2023-01-27T17:39:34.690Z,1.33
2023-01-27T17:42:02.271Z,1.20
2023-01-27T17:44:31.293Z,1.37
2023-01-27T17:47:00.797Z,1.77
2023-01-27T17:49:29.530Z,1.40
2023-01-27T17:51:58.748Z,1.00
2023-01-27T17:54:30.974Z,0.93
2023-01-27T17:57:04.309Z,1.20
2023-01-27T17:59:35.316Z,1.00
2023-01-27T18:02:09.333Z,1.53
2023-01-27T18:04:42.723Z,1.17
2023-01-27T18:07:20.546Z,1.10
2023-01-27T18:09:53.936Z,0.97
2023-01-27T18:12:39.541Z,3.30
2023-01-27T18:15:43.593Z,1.00
2023-01-27T18:18:23.425Z,1.10
2023-01-27T18:21:03.294Z,1.30
2023-01-27T18:23:33.287Z,1.30
2023-01-27T18:26:17.799Z,1.30
2023-01-27T18:28:46.999Z,1.57
2023-01-27T18:31:20.460Z,1.43
2023-01-27T18:34:00.165Z,1.47
2023-01-27T18:36:34.591Z,1.83
2023-01-27T18:39:02.712Z,1.30
2023-01-27T18:41:33.283Z,1.93
2023-01-27T18:44:01.511Z,1.97
2023-01-27T18:46:30.551Z,2.30
2023-01-27T18:49:00.138Z,1.77
2023-01-27T18:51:27.674Z,2.17
2023-01-27T18:53:55.184Z,2.83
2023-01-27T18:56:22.715Z,2.00
2023-01-27T18:58:50.408Z,1.60
2023-01-27T19:01:22.571Z,1.17
2023-01-27T19:03:52.251Z,1.73
2023-01-27T19:06:19.893Z,1.90
2023-01-27T19:08:48.900Z,2.70
2023-01-27T19:11:16.993Z,1.50
2023-01-27T19:13:45.482Z,1.97
2023-01-27T19:16:15.628Z,2.40
2023-01-27T19:18:43.690Z,3.03
2023-01-27T19:21:15.292Z,3.03
2023-01-27T19:23:44.517Z,1.60
2023-01-27T19:26:17.333Z,2.07
2023-01-27T19:28:46.456Z,3.43
2023-01-27T19:31:14.399Z,3.73
2023-01-27T19:33:44.057Z,2.03
2023-01-27T19:36:20.855Z,4.60
2023-01-27T19:38:49.056Z,2.97
2023-01-27T19:41:16.922Z,2.40
2023-01-27T19:43:47.127Z,2.10
2023-01-27T19:46:16.282Z,2.00
2023-01-27T19:48:43.980Z,1.47
2023-01-27T19:51:12.906Z,2.83
2023-01-27T19:53:40.797Z,2.60
2023-01-27T19:56:17.019Z,1.57
2023-01-27T19:58:47.306Z,2.23
2023-01-27T20:01:15.002Z,1.90
2023-01-27T20:03:42.582Z,2.53
2023-01-27T20:06:16.780Z,3.30
2023-01-27T20:08:44.695Z,1.93
2023-01-27T20:11:30.976Z,2.17
2023-01-27T20:13:59.001Z,2.50
2023-01-27T20:16:26.675Z,2.57
2023-01-27T20:18:54.925Z,1.20
2023-01-27T20:21:25.693Z,2.33
2023-01-27T20:23:53.897Z,1.57
2023-01-27T20:26:22.649Z,1.67
2023-01-27T20:28:50.815Z,1.73
2023-01-27T20:31:20.174Z,1.83
2023-01-27T20:33:49.894Z,1.70
2023-01-27T20:36:19.249Z,1.47
2023-01-27T20:38:48.401Z,1.70
2023-01-27T20:41:17.781Z,1.40
2023-01-27T20:43:45.525Z,1.40
2023-01-27T20:46:15.689Z,1.83
2023-01-27T20:48:43.656Z,1.73
2023-01-27T20:51:13.624Z,1.83
2023-01-27T20:53:45.221Z,1.73
2023-01-27T20:56:15.048Z,2.77
2023-01-27T20:58:43.163Z,1.80
2023-01-27T21:01:12.923Z,1.03
2023-01-27T21:03:41.402Z,1.50
2023-01-27T21:06:10.503Z,1.57
2023-01-27T21:08:38.612Z,3.43
2023-01-27T21:11:10.786Z,1.67
2023-01-27T21:13:39.880Z,1.47
2023-01-27T21:16:07.593Z,2.30
2023-01-27T21:18:36.667Z,2.10
2023-01-27T21:21:05.030Z,1.73
2023-01-27T21:23:34.353Z,1.93
2023-01-27T21:26:04.459Z,1.90
2023-01-27T21:28:33.530Z,1.80
2023-01-27T21:31:07.173Z,2.13
2023-01-27T21:33:36.086Z,1.57
2023-01-27T21:36:03.796Z,1.53
2023-01-27T21:38:32.357Z,0.83
2023-01-27T21:41:04.979Z,1.73
2023-01-27T21:43:50.150Z,1.23
2023-01-27T21:46:19.722Z,1.10
2023-01-27T21:48:47.351Z,1.60
2023-01-27T21:51:15.213Z,1.53
2023-01-27T21:53:42.972Z,1.77
2023-01-27T21:56:11.953Z,1.27
2023-01-27T21:58:39.930Z,1.10
2023-01-27T22:01:08.101Z,1.30
2023-01-27T22:03:37.956Z,1.33
2023-01-27T22:06:06.919Z,0.90
2023-01-27T22:08:35.361Z,0.90
2023-01-27T22:11:04.436Z,1.00
2023-01-27T22:13:32.609Z,1.33
2023-01-27T22:16:00.952Z,2.20
2023-01-27T22:18:28.940Z,0.87
2023-01-27T22:21:01.280Z,0.50
2023-01-27T22:23:28.819Z,1.20
2023-01-27T22:25:56.342Z,1.00
2023-01-27T22:28:25.383Z,1.40
2023-01-27T22:30:53.603Z,1.07
2023-01-27T22:33:21.203Z,1.63
2023-01-27T22:35:48.807Z,2.30
2023-01-27T22:38:17.704Z,1.07
2023-01-27T22:40:45.359Z,3.17
2023-01-27T22:43:12.857Z,1.50
2023-01-27T22:45:40.913Z,0.70
2023-01-27T22:48:09.567Z,1.40
2023-01-27T22:51:03.138Z,1.27
2023-01-27T22:53:32.039Z,1.13
2023-01-27T22:56:00.168Z,0.97
2023-01-27T22:58:28.707Z,2.40
2023-01-27T23:00:56.812Z,1.10
2023-01-27T23:03:24.591Z,1.30
2023-01-27T23:05:52.164Z,1.20
2023-01-27T23:08:20.575Z,0.97
2023-01-27T23:10:49.578Z,1.33
2023-01-27T23:13:17.447Z,1.10
2023-01-27T23:15:44.940Z,1.20
2023-01-27T23:18:12.509Z,1.47
2023-01-27T23:20:40.894Z,1.60
2023-01-27T23:23:08.961Z,0.90
2023-01-27T23:25:37.818Z,1.03
2023-01-27T23:28:06.667Z,1.07
2023-01-27T23:30:34.212Z,1.70
2023-01-27T23:33:01.809Z,1.43
2023-01-27T23:35:29.303Z,0.80
2023-01-27T23:37:56.805Z,1.10
2023-01-27T23:40:24.288Z,0.67
2023-01-27T23:42:51.805Z,1.37
2023-01-27T23:45:20.751Z,0.73
2023-01-27T23:47:48.255Z,0.90
2023-01-27T23:50:16.246Z,1.00
2023-01-27T23:52:43.759Z,1.23
2023-01-27T23:55:12.972Z,1.10
2023-01-27T23:57:41.102Z,1.03
